This site, now in its 15th season, is a labour of love and fun from one of Ottawa's most avid time trialists and number crunchers. It adheres to and is permitted by the laws of Canada, promotes the objectives of every bicycle club whose results are shown, and is donated free of charge by myself for your enjoyment and usage. If you would like results from series you ride in to be shown here, give me (celia@drmath.ca) a shout!


Index Page
ATT OTT WTT AATT CFCTT VVVTT
Help resultformat:
Case-sensitive

OBC Open TT Series - 2008-May-08 - 15km (Rockliffe Pkwy) (EvtFactor = 0.8670)

Weather (18:00): Cloudy. Temp.: 14C, Humidity: 50%, Dew Point: 4C, Wind: WNW 22km/h, Pressure: 100.8kPa, Visibility: 24km.
Weather (19:00): Mostly Cloudy. Temp.: 14C, Humidity: 51%, Dew Point: 4C, Wind: W 21km/h, Pressure: 100.9kPa, Visibility: 24km.
Weather (20:00): Mostly Cloudy. Temp.: 13C, Humidity: 54%, Dew Point: 4C, Wind: W 13km/h, Pressure: 101.0kPa, Visibility: 24km.

Send photos with description (when/where/what) of yourself on or off of bike to celia@drmath.ca

These results were first posted on the OBC site circa 12:20 on 2008-May-09 and are available here for your added pleasure.
If you'd like to use the full functionality of this site and your name is followed by "Need YOB", please send your birth year to celia@drmath.ca.


Though it may have been windier and or colder for the last couple of time trials, the fitness levels are improving and 16 of the 34 who had already ridden this season improved. The fastest rider for two of the last three weeks, Ron Amos, who we hope will shortly break the 20 minute barrier, has the distinction of being the most consistent in terms of his times. In terms of category performances, Hermann Kerckhoff made his third improvement in the 70-79 year old category in as many attempts. There was also a strong ride for Paul Datars, now in the 50-59 year old category, who can be expected to challenge Rick Sudac's VCM record which was set on that impressive night of 2004-Jul-29!

 
 

BESTS?
 
1 Amos, Ron  OBC/RWR 20:02 44.925 1/49 VBM 1/10 0.9975
2 Datars, Paul  OBC/RWR 20:17 44.371 2/49 VCM 1/9  
3 Hamilton, Peter OBC 20:31 43.867 3/49 VBM 2/10  
4 Devisscher, Thomas APK 20:39 43.584 4/49 SEM 1/5 1.0443
5 Hawkes, Craig OBC/EMD 20:43 43.443 5/49 VAM 1/5  
6 Hanrahan, Mason EUR 20:59 42.891 6/49 JUM 1/1 1.1949
7 van den Ham, Douglas  OBC 21:09 42.553 7/49 SEM 2/5 0.9835
8 Wright, Sean CYC 21:26 41.991 8/49 VBM 3/10 0.9791
9 Zappe, Erich RWR 21:27 41.958 9/49 VBM 4/10 1.0330
10 Romkey, Gary OBC/RWR 21:36 41.667 10/49 VDM 1/6 0.9793
11 Leclerc, Louis-Philippe IND 22:03 40.816 11/49 SEM 3/5 1.0159
Radford, Iain OBC 22:03 40.816 11/49 VAM 2/5  
13 Hess, Detlef OBC 22:40 39.706 13/49 VCM 2/9 0.9912
14 Matte, Sophie  OBC/EMD 22:42 39.648 14/49 VAF 1/3 0.9716
15 Budgell, Glen  OBC 22:51 39.387 15/49 VCM 3/9 0.8506
16 Thomas, Trevor CYC 22:53 39.330 16/49 VAM 3/5 1.0488
17 Fortin, Yves OBC 23:05 38.989 17/49 VBM 5/10 1.1263
18 Skafel, Paul CYC 23:08 38.905 18/49 VAM 4/5  
19 Kerckhoff, Hermann  RWR 23:24 38.462 19/49 VEM 1/1 1.0544
20 Moerman, Bram  OBC 23:31 38.271 20/49 VDM 2/6 1.0193
21 Tongoc, Serge RWR 23:34 38.190 21/49 VBM 6/10  
22 Sargent, Larry OBC 23:37 38.109 22/49 VCM 4/9  
23 Burdett, Avery  OBC 23:40 38.028 23/49 VDM 3/6 0.9379
Posthuma, Hans  OBC 23:40 38.028 23/49 VCM 5/9  
25 Blagdon, Wendy  EMD 24:05 37.370 25/49 VBF 1/4 0.9450
26 Domina, Sara OBC 24:12 37.190 26/49 SEF 1/2 0.9492
27 Burnet, Alex OBC 24:14 37.139 27/49 SEM 4/5 1.0271
28 Coney, Michael OBC 24:28 36.785 28/49 VDM 4/6 0.9858
29 Janusauskas, Vytas  OBC 24:38 36.536 29/49 VCM 6/9 0.9778
30 Farish, Neil  OBC/RWR 24:49 36.266 30/49 VCM 7/9  
31 Paul, Richard  OBC 24:57 36.072 31/49 VCM 8/9 0.9683
32 Blais, Sylvain OBC 25:13 35.691 32/49 VAM 5/5 1.0382
33 Kenwell, Carley OBC 25:17 35.597 33/49 SEF 2/2  
34 McInnis, Celia  OBC/ABC 25:35 35.179 34/49 VCF 1/3 1.1325
Simard, Martin OBC 25:35 35.179 34/49 VBM 7/10 0.9690
36 Chi, Lorne OBC 25:40 35.065 36/49 SEM 5/5  
Hicks, Bob  OBC 25:40 35.065 36/49 VDM 5/6  
38 Carlin, Andrew OBC 25:47 34.906 38/49 VBM 8/10  
39 Gagné, Marc  OBC 26:03 34.549 39/49 VBM 9/10 0.9772
40 Konantz, Patricia  OBC 26:08 34.439 40/49 VCF 2/3 1.0174
41 Marleau, Dianne  OBC/RWR 26:12 34.351 41/49 VBF 2/4 0.9810
42 Reissner, Leslie OBC 26:21 34.156 42/49 VCM 9/9  
43 Coney, Ingrid  OBC 26:28 34.005 43/49 VCF 3/3 1.0363
44 Quance, Terry OBC 26:35 33.856 44/49 VDM 6/6  
45 Wright, Michael OBC 26:57 33.395 45/49 VBM 10/10 1.1600
46 Rees, Stephanie  OBC 27:05 33.231 46/49 VAF 2/3 1.0565
47 McLaren, Louise  OBC 27:42 32.491 47/49 VBF 3/4 0.9749
48 Smith, Stephanie OBC 28:04 32.067 48/49 VAF 3/3 1.1731
49 Jay, Sheri OBC 29:33 30.457 49/49 VBF 4/4 0.9849
 
Average Speed of all of the above 49 finishes (735km in 19:38:58):37.406
>>>Average of the Average Speeds for these 49 finishes37.734<<<
 

The number of data records shown above is 49
The server processing of your query took: 1 wallclock secs ( 0.13 usr + 0.05 sys = 0.18 CPU)

Thanks to our Helpers: Ron Amos, Matteo Dal-Cin, Gunter Hauschildt, Alex McKnight, Jacques Morvan.

     


Mar 21 (Good Friday)
Apr 24
May 1 May 6 (10km)
  May 8  
May 13 (10km) May 15 May 20 May 20 (10km) May 22 May 27 May 27 (10km) May 29
Jun 1 (40km) Jun 3 Jun 3 Jun 5 Jun 10 Jun 10 Jun 12 Jun 17 Jun 17 Jun 19 Jun 24 Jun 24 Jun 26
Jul 1 (cancelled - ) Jul 2 Jul 3 Jul 6 (40km) Jul 8 Jul 8 Jul 10 Jul 15 Jul 15 Jul 17 Jul 22 Jul 22 Jul 24 Jul 27 (40km) Jul 29 Jul 29 Jul 31
Aug 5 Aug 5 Aug 7 Aug 10 (40km) Aug 12 Aug 12 Aug 14 Aug 19 Aug 19 Aug 21 Aug 26 Aug 26 (Invitational) Aug 28
Sep 2 Sep 4 Sep 7 (40km) Sep 9 Sep 11 Sep 16 Sep 21 (40km) Sep 23 Sep 30

OTT Rankings
Best       Best by category
WTT Rankings for OBC Members
5 Best Speeds     5 Best Speeds by category
OBC Member Best Three 15km Rankings
Overall     by category     age-Hcap Female   age-Hcap Male
OBC BAR Ranking
Overall     by category     Rider "Consistency-Graph"
ABC BAR Ranking
Overall     by category     Rider "Consistency-Graph"
Other years
TT Calculator All TT People All TT events
ABC Home VVV Home
CKAP GOLD MEDAL
Other Links

Note: OTT data from 2003 through 2006-Apr-14 and 2007-Apr-06-? and WTT from 2008-? is taken from the official OBC site.

Please send your comments and suggestions to: Celia McInnis
Copyright © 1998-2011 Celia McInnis. All rights reserved. Links are welcomed.